Garfield, Illinois
Current Conditions -  °F | °C
As of 9:55 PM on Friday 24 Oct 2014 (Local Time) from KC75 Reporting Station
Overcast Overcast  
Wind Chill: 59°   Ceiling: 4400
Heat Index: 59°   Visibility: 10mi
Dew Point: 50°   Wind: 3mph
Humidity: 71%   Direction: 170°S
Pressure: 29.95"   Gusts: NA
Location:  41.0632°N, 89.0208°W
Report Text: KC75 250255Z AUTO 17003KT 10SM SCT038 BKN044 OVC060 15/10 A2995 RMK AO2 T01520100
Loading
Personal Weather Stations






























Interactive Weather Map
Tropical Storm Tracking
New forecast layout! Learn more

10-Day Weather Forecast

Advertisements
Track Severe Weather on mobile